Time;durP1;ratioP1;P1;durP2;ratioP2;P2;SDS_P1;SDS_P2;PMS_P1;PMS_P2;Temp;Humidity;BMP_temperature;BMP_pressure;BME280_temperature;BME280_humidity;BME280_pressure;Samples;Min_cycle;Max_cycle;Signal;HPM_P1;HPM_P2
2023/03/31 00:01:28;;;;;;;8.30;5.30;;;;;;;1.00;55.26;100704.70;109712;1244;70964;-68
2023/03/31 00:04:07;;;;;;;9.40;5.00;;;;;;;1.03;55.53;100700.32;109604;1241;71673;-68
2023/03/31 00:06:37;;;;;;;9.20;5.40;;;;;;;1.03;56.11;100690.35;109717;1243;59459;-68
2023/03/31 00:09:20;;;;;;;12.50;5.40;;;;;;;1.01;56.55;100687.83;109549;1241;60594;-67
2023/03/31 00:11:51;;;;;;;10.20;5.30;;;;;;;1.01;56.92;100683.53;109634;1241;73422;-68
2023/03/31 00:14:20;;;;;;;9.20;5.00;;;;;;;0.99;57.48;100681.39;109560;1242;71624;-70
2023/03/31 00:16:49;;;;;;;8.80;5.10;;;;;;;1.02;56.67;100681.82;109611;1241;70159;-69
2023/03/31 00:19:18;;;;;;;9.30;4.90;;;;;;;1.04;56.63;100678.99;109537;1242;73515;-69
2023/03/31 00:21:47;;;;;;;10.20;4.80;;;;;;;1.10;56.84;100678.80;109648;1245;59248;-68
2023/03/31 00:24:17;;;;;;;10.20;5.30;;;;;;;1.15;57.82;100674.52;109697;1241;60649;-68
2023/03/31 00:26:46;;;;;;;10.10;5.40;;;;;;;1.18;57.83;100677.48;109493;1241;72461;-68
2023/03/31 00:29:15;;;;;;;7.20;4.80;;;;;;;1.24;57.59;100684.33;109569;1241;72181;-68
2023/03/31 00:31:43;;;;;;;10.20;5.80;;;;;;;1.27;57.38;100680.09;109636;1241;70919;-68
2023/03/31 00:34:13;;;;;;;11.30;5.40;;;;;;;1.34;57.43;100676.78;109706;1241;73349;-69
2023/03/31 00:36:47;;;;;;;11.10;5.30;;;;;;;1.41;57.26;100671.04;109622;1244;59644;-68
2023/03/31 00:39:18;;;;;;;11.90;5.10;;;;;;;1.49;56.58;100663.20;109682;1241;59231;-68
2023/03/31 00:41:46;;;;;;;9.50;5.20;;;;;;;1.58;56.30;100657.56;109584;1241;73598;-68
2023/03/31 00:44:28;;;;;;;10.50;5.50;;;;;;;1.67;56.06;100652.95;109662;1241;70020;-69
2023/03/31 00:47:08;;;;;;;10.30;5.20;;;;;;;1.74;56.70;100652.35;109618;1241;67910;-68
2023/03/31 00:49:46;;;;;;;9.70;5.30;;;;;;;1.79;56.84;100652.51;109579;1241;71162;-68
2023/03/31 00:52:34;;;;;;;9.00;5.40;;;;;;;1.82;56.98;100654.29;109541;1246;60398;-68
2023/03/31 00:55:11;;;;;;;10.00;5.50;;;;;;;1.87;56.90;100648.95;109526;1247;60410;-68
2023/03/31 00:57:41;;;;;;;10.00;5.80;;;;;;;1.92;56.74;100645.51;109556;1241;73363;-69
2023/03/31 01:00:14;;;;;;;9.40;5.30;;;;;;;1.98;56.96;100642.36;109597;1241;71746;-70
2023/03/31 01:02:54;;;;;;;9.70;5.60;;;;;;;2.04;57.28;100635.60;109587;1242;70268;-68
2023/03/31 01:05:50;;;;;;;11.10;5.40;;;;;;;2.13;57.29;100629.40;109556;1241;73233;-69
2023/03/31 01:08:24;;;;;;;9.90;5.40;;;;;;;2.21;56.91;100626.67;109574;1244;61010;-70
2023/03/31 01:11:02;;;;;;;12.40;6.70;;;;;;;2.27;56.93;100620.78;109588;1241;60059;-69
2023/03/31 01:13:31;;;;;;;9.80;6.30;;;;;;;2.34;56.87;100615.02;109553;1242;73673;-69
2023/03/31 01:16:00;;;;;;;10.70;6.70;;;;;;;2.40;56.69;100611.17;109519;1244;72553;-67
2023/03/31 01:18:33;;;;;;;16.10;8.80;;;;;;;2.44;57.04;100606.00;109521;1243;70873;-68
2023/03/31 01:21:22;;;;;;;13.70;8.30;;;;;;;2.50;57.04;100603.87;109641;1241;73380;-68
2023/03/31 01:24:24;;;;;;;11.90;6.70;;;;;;;2.56;57.20;100597.98;109522;1245;59361;-66
2023/03/31 01:27:12;;;;;;;17.30;8.50;;;;;;;2.60;57.24;100594.85;109579;1241;59336;-67
2023/03/31 01:30:44;;;;;;;14.80;8.50;;;;;;;2.64;56.73;100592.61;109711;1241;71638;-71
2023/03/31 01:34:00;;;;;;;14.80;8.30;;;;;;;2.72;56.96;100589.89;109588;1241;70580;-70
2023/03/31 01:37:17;;;;;;;14.30;7.10;;;;;;;2.79;56.19;100588.05;109534;1241;70143;-69
2023/03/31 01:40:11;;;;;;;14.10;7.20;;;;;;;2.88;55.22;100578.23;109650;1241;73062;-69
2023/03/31 01:42:52;;;;;;;18.90;9.80;;;;;;;2.93;53.72;100574.05;109513;1242;58344;-69
2023/03/31 01:45:56;;;;;;;14.60;9.60;;;;;;;3.03;51.56;100570.38;109366;1247;58193;-67
2023/03/31 01:48:48;;;;;;;15.50;9.20;;;;;;;3.11;51.72;100569.15;109511;1241;74365;-68
2023/03/31 01:51:27;;;;;;;19.40;9.90;;;;;;;3.18;50.13;100562.65;109370;1241;73297;-68
2023/03/31 01:54:25;;;;;;;17.00;9.40;;;;;;;3.24;49.57;100558.60;109507;1241;59930;-69
2023/03/31 01:57:46;;;;;;;18.10;9.00;;;;;;;3.32;48.95;100554.29;109320;1241;62504;-68
2023/03/31 02:00:28;;;;;;;16.50;8.70;;;;;;;3.36;48.75;100549.60;109294;1245;57872;-68
2023/03/31 02:03:13;;;;;;;21.10;9.80;;;;;;;3.42;48.57;100548.84;109342;1241;57718;-70
2023/03/31 02:05:53;;;;;;;17.50;9.20;;;;;;;3.43;48.23;100547.73;109420;1241;71569;-70
2023/03/31 02:08:29;;;;;;;18.20;8.30;;;;;;;3.47;48.32;100543.98;109373;1245;61700;-70
2023/03/31 02:11:00;;;;;;;17.00;8.30;;;;;;;3.52;47.83;100538.77;109367;1241;59314;-69
2023/03/31 02:13:33;;;;;;;15.60;8.00;;;;;;;3.57;47.21;100539.55;109343;1241;73816;-69
2023/03/31 02:16:07;;;;;;;12.60;7.50;;;;;;;3.60;47.49;100531.14;109364;1244;60956;-70
2023/03/31 02:18:40;;;;;;;15.00;7.00;;;;;;;3.63;46.89;100531.33;109423;1241;61822;-69
2023/03/31 02:21:13;;;;;;;13.20;8.30;;;;;;;3.67;46.57;100529.92;109388;1241;74337;-69
2023/03/31 02:23:44;;;;;;;15.20;7.70;;;;;;;3.69;46.82;100532.42;109456;1241;72665;-70
2023/03/31 02:26:27;;;;;;;19.00;7.70;;;;;;;3.75;46.55;100529.08;109338;1241;59806;-69
2023/03/31 02:28:57;;;;;;;;;;;;;;;3.73;46.77;100521.05;109313;1241;73961;-70
2023/03/31 02:31:56;;;;;;;14.40;6.90;;;;;;;3.74;46.91;100520.67;109292;1247;60619;-70
2023/03/31 02:34:25;;;;;;;16.80;7.90;;;;;;;3.75;46.91;100516.32;109438;1241;59874;-70
2023/03/31 02:36:55;;;;;;;17.10;7.60;;;;;;;3.77;47.03;100517.10;109379;1241;73328;-69
2023/03/31 02:39:35;;;;;;;13.00;7.30;;;;;;;3.78;46.74;100516.02;109481;1244;62061;-68
2023/03/31 02:42:07;;;;;;;18.00;8.00;;;;;;;3.79;46.72;100509.05;109500;1240;70576;-69
2023/03/31 02:44:38;;;;;;;12.30;7.10;;;;;;;3.82;47.50;100507.17;109447;1248;64219;-70
2023/03/31 02:47:14;;;;;;;15.60;8.80;;;;;;;3.83;47.01;100503.71;109429;1245;58693;-67
2023/03/31 02:49:55;;;;;;;15.20;7.90;;;;;;;3.78;46.79;100492.77;109486;1241;58604;-71
2023/03/31 02:52:47;;;;;;;15.20;8.00;;;;;;;3.77;47.08;100486.23;109480;1241;72400;-70
2023/03/31 02:55:46;;;;;;;14.90;7.30;;;;;;;3.75;47.28;100483.06;109527;1247;60984;-69
2023/03/31 02:58:49;;;;;;;19.30;8.10;;;;;;;3.72;47.29;100480.98;109591;1241;70467;-69
2023/03/31 03:01:49;;;;;;;13.10;7.60;;;;;;;3.72;47.85;100486.63;109602;1241;74244;-70
2023/03/31 03:05:03;;;;;;;21.80;7.70;;;;;;;3.70;47.62;100494.48;109441;1245;58319;-69
2023/03/31 03:07:36;;;;;;;;;;;;;;;3.69;47.72;100485.26;109528;1245;58443;-68
2023/03/31 03:10:32;;;;;;;12.50;7.60;;;;;;;3.60;48.32;100475.35;109603;1245;71865;-69
2023/03/31 03:13:43;;;;;;;16.80;8.30;;;;;;;3.63;48.56;100474.54;109607;1245;61642;-67
2023/03/31 03:16:58;;;;;;;17.50;8.60;;;;;;;3.61;49.15;100467.86;109575;1241;60022;-69
2023/03/31 03:19:27;;;;;;;17.80;8.40;;;;;;;3.58;49.48;100462.69;109208;1249;73922;-70
2023/03/31 03:21:57;;;;;;;17.40;8.80;;;;;;;3.54;49.40;100457.71;109498;1244;58307;-70
2023/03/31 03:24:28;;;;;;;19.40;8.30;;;;;;;3.51;49.11;100456.83;109600;1240;61227;-70
2023/03/31 03:26:57;;;;;;;22.10;8.40;;;;;;;3.47;49.22;100453.75;109591;1244;64350;-72
2023/03/31 03:29:26;;;;;;;16.30;8.40;;;;;;;3.42;49.57;100451.75;109733;1242;61680;-69
2023/03/31 03:31:55;;;;;;;17.20;8.70;;;;;;;3.38;49.72;100454.69;109591;1241;68795;-71
2023/03/31 03:34:24;;;;;;;23.40;8.50;;;;;;;3.27;49.56;100446.75;109559;1245;71951;-70
2023/03/31 03:36:53;;;;;;;20.10;8.50;;;;;;;3.34;49.76;100452.77;109645;1244;58254;-69
2023/03/31 03:39:22;;;;;;;21.80;8.10;;;;;;;3.37;50.11;100452.31;109681;1241;59558;-70
2023/03/31 03:41:50;;;;;;;23.70;9.70;;;;;;;3.39;49.82;100449.98;109687;1241;74368;-71
2023/03/31 03:44:19;;;;;;;21.50;8.70;;;;;;;3.36;50.13;100443.06;109565;1241;62725;-69
2023/03/31 03:46:48;;;;;;;17.40;7.90;;;;;;;3.43;50.35;100441.18;109538;1247;60141;-71
2023/03/31 03:49:17;;;;;;;16.30;8.20;;;;;;;3.52;50.75;100437.45;109514;1245;63299;-70
2023/03/31 03:51:46;;;;;;;16.20;7.60;;;;;;;3.62;50.79;100429.58;109690;1245;58345;-70
2023/03/31 03:54:15;;;;;;;16.40;8.40;;;;;;;3.59;50.04;100419.25;109542;1241;58317;-71
2023/03/31 03:56:44;;;;;;;13.30;7.90;;;;;;;3.60;50.17;100419.89;109674;1246;64017;-69
2023/03/31 03:59:13;;;;;;;16.90;7.50;;;;;;;3.59;50.15;100427.15;109529;1245;60930;-70
2023/03/31 04:01:42;;;;;;;19.00;8.30;;;;;;;3.60;50.67;100428.69;109709;1244;59215;-70
2023/03/31 04:04:11;;;;;;;16.70;7.60;;;;;;;3.61;50.38;100431.17;109555;1248;62625;-71
2023/03/31 04:06:40;;;;;;;17.80;8.00;;;;;;;3.62;50.20;100425.81;109606;1242;58273;-69
2023/03/31 04:09:10;;;;;;;20.60;9.60;;;;;;;3.64;50.44;100421.41;109619;1245;58269;-71
2023/03/31 04:11:38;;;;;;;16.80;8.90;;;;;;;3.69;50.80;100416.00;109644;1241;73283;-70
2023/03/31 04:14:07;;;;;;;15.60;8.10;;;;;;;3.74;50.45;100416.46;109799;1245;61421;-70
2023/03/31 04:16:37;;;;;;;16.90;8.80;;;;;;;3.77;50.42;100414.77;109820;1245;59290;-70
2023/03/31 04:19:07;;;;;;;14.90;8.70;;;;;;;3.79;50.03;100411.06;109659;1241;73958;-71
2023/03/31 04:21:36;;;;;;;19.50;8.90;;;;;;;3.77;50.00;100401.48;109803;1244;60844;-71
2023/03/31 04:24:05;;;;;;;23.40;8.90;;;;;;;3.75;49.92;100396.59;109697;1245;60757;-71
2023/03/31 04:26:43;;;;;;;17.30;8.30;;;;;;;3.77;50.12;100390.98;109676;1241;64445;-73
2023/03/31 04:29:15;;;;;;;16.70;7.80;;;;;;;3.84;49.77;100393.23;109636;1241;72402;-72
2023/03/31 04:31:44;;;;;;;15.20;8.40;;;;;;;3.87;50.55;100391.16;109807;1241;69906;-71
2023/03/31 04:34:14;;;;;;;20.00;8.30;;;;;;;3.94;49.94;100385.99;109741;1242;74640;-70
2023/03/31 04:36:47;;;;;;;18.00;8.20;;;;;;;3.97;50.41;100379.65;109649;1242;58305;-74
2023/03/31 04:39:29;;;;;;;20.80;9.00;;;;;;;4.09;50.68;100374.91;109605;1241;58357;-71
2023/03/31 04:41:59;;;;;;;14.20;8.50;;;;;;;4.17;49.98;100377.59;109565;1248;63820;-72
2023/03/31 04:44:29;;;;;;;16.40;9.30;;;;;;;4.22;49.61;100377.16;109613;1246;63340;-70
2023/03/31 04:47:01;;;;;;;18.30;8.00;;;;;;;4.35;49.98;100378.73;109584;1241;70405;-71
2023/03/31 04:49:32;;;;;;;19.00;8.70;;;;;;;4.45;49.14;100373.41;109596;1241;74302;-71
2023/03/31 04:52:01;;;;;;;20.20;9.50;;;;;;;4.53;49.00;100372.09;109693;1240;60884;-71
2023/03/31 04:54:29;;;;;;;21.60;9.40;;;;;;;4.64;48.48;100370.65;109747;1241;61825;-71
2023/03/31 04:56:58;;;;;;;19.00;9.80;;;;;;;4.70;48.04;100367.77;109545;1248;65369;-71
2023/03/31 04:59:27;;;;;;;22.20;9.40;;;;;;;4.79;48.05;100366.76;109753;1245;61648;-71
2023/03/31 05:01:56;;;;;;;25.00;9.20;;;;;;;4.86;47.82;100367.45;109582;1244;60002;-71
2023/03/31 05:04:25;;;;;;;22.90;9.10;;;;;;;4.94;48.12;100368.51;109603;1241;73537;-71
2023/03/31 05:06:54;;;;;;;24.90;10.20;;;;;;;5.02;48.34;100367.27;109588;1244;60977;-71
2023/03/31 05:09:22;;;;;;;20.40;8.80;;;;;;;5.07;47.92;100362.48;109591;1245;60940;-72
2023/03/31 05:11:51;;;;;;;22.40;10.50;;;;;;;5.14;48.33;100359.51;109588;1245;75120;-71
2023/03/31 05:14:20;;;;;;;24.90;10.20;;;;;;;5.16;48.60;100363.36;109733;1243;62142;-73
2023/03/31 05:16:49;;;;;;;26.50;11.10;;;;;;;5.30;48.34;100365.52;109739;1243;60109;-71
2023/03/31 05:19:18;;;;;;;22.30;11.80;;;;;;;5.39;47.89;100361.39;109731;1243;62633;-72
2023/03/31 05:21:47;;;;;;;24.70;11.00;;;;;;;5.45;48.08;100356.23;109730;1241;59675;-73
2023/03/31 05:24:16;;;;;;;20.50;11.30;;;;;;;5.45;47.60;100350.31;109752;1242;58241;-72
2023/03/31 05:26:51;;;;;;;15.50;9.90;;;;;;;5.53;47.88;100350.04;109543;1247;63016;-74
2023/03/31 05:29:20;;;;;;;18.00;10.00;;;;;;;5.61;47.53;100345.98;109774;1241;72230;-71
2023/03/31 05:31:52;;;;;;;16.80;9.70;;;;;;;5.70;48.16;100343.89;109517;1241;59677;-71
2023/03/31 05:34:20;;;;;;;23.20;10.60;;;;;;;5.65;47.99;100340.39;109485;1241;73881;-71
2023/03/31 05:36:52;;;;;;;14.50;9.00;;;;;;;5.70;47.99;100341.34;109696;1241;57788;-70
2023/03/31 05:39:21;;;;;;;18.20;9.40;;;;;;;5.85;47.67;100339.92;109699;1241;60413;-71
2023/03/31 05:41:50;;;;;;;20.80;10.40;;;;;;;5.80;48.45;100335.72;109658;1241;74928;-70
2023/03/31 05:44:19;;;;;;;19.30;9.60;;;;;;;5.78;47.88;100333.61;109488;1244;72602;-71
2023/03/31 05:46:48;;;;;;;19.10;9.20;;;;;;;5.63;47.63;100334.14;109525;1241;60873;-74
2023/03/31 05:49:17;;;;;;;19.20;8.90;;;;;;;5.69;47.85;100335.52;109573;1241;63384;-72
2023/03/31 05:51:46;;;;;;;19.80;10.00;;;;;;;5.75;47.71;100332.73;109534;1241;57759;-69
2023/03/31 05:54:15;;;;;;;23.30;10.50;;;;;;;5.77;47.85;100332.42;109404;1241;57790;-69
2023/03/31 05:56:44;;;;;;;16.90;10.10;;;;;;;5.96;47.84;100333.23;109498;1241;63880;-71
2023/03/31 06:10:55;;;;;;;17.40;9.20;;;;;;;6.45;46.69;100305.02;104848;1276;599434;-72
2023/03/31 06:13:24;;;;;;;16.70;9.40;;;;;;;6.52;47.81;100305.64;107190;1248;60564;-73
2023/03/31 06:15:56;;;;;;;16.40;8.90;;;;;;;6.62;46.87;100303.29;106933;1247;60193;-75
2023/03/31 06:18:28;;;;;;;16.10;8.70;;;;;;;6.63;46.81;100306.19;106713;1257;71398;-74
2023/03/31 06:20:57;;;;;;;15.90;8.10;;;;;;;6.70;46.65;100306.25;106882;1247;71840;-74
2023/03/31 11:14:12;;;;;;;10.50;7.20;;;;;;;11.44;60.65;100188.50;105118;1277;599541;-74
2023/03/31 11:17:10;;;;;;;12.00;8.00;;;;;;;11.42;61.44;100189.02;107040;1251;60742;-75
2023/03/31 11:19:52;;;;;;;12.70;7.10;;;;;;;11.39;62.05;100191.89;107093;1253;61609;-78
2023/03/31 11:22:58;;;;;;;15.50;7.40;;;;;;;11.37;62.12;100195.89;107104;1254;72353;-75
2023/03/31 11:25:55;;;;;;;15.00;9.00;;;;;;;11.32;63.19;100195.25;107062;1252;62381;-73
2023/03/31 11:28:38;;;;;;;16.50;10.40;;;;;;;11.26;64.01;100192.80;107278;1245;452079;-73
2023/03/31 11:31:30;;;;;;;15.20;9.30;;;;;;;11.20;64.77;100194.52;107221;1248;74413;-74
2023/03/31 11:34:23;;;;;;;17.20;9.80;;;;;;;11.30;65.63;100189.00;107340;1248;60596;-72
2023/03/31 11:37:12;;;;;;;14.40;9.50;;;;;;;11.36;66.64;100189.80;107346;1254;58966;-77
2023/03/31 11:40:06;;;;;;;15.40;10.50;;;;;;;11.43;66.69;100188.23;107115;1259;62341;-76
2023/03/31 11:43:00;;;;;;;18.90;10.50;;;;;;;11.54;67.25;100184.51;107182;1254;62384;-72
2023/03/31 11:45:44;;;;;;;15.50;10.80;;;;;;;11.56;67.11;100182.02;107054;1249;59155;-72
2023/03/31 11:48:44;;;;;;;17.60;10.70;;;;;;;11.46;67.87;100182.20;106917;1255;73867;-71
2023/03/31 11:51:53;;;;;;;21.10;11.70;;;;;;;11.38;68.37;100184.42;107107;1247;62309;-72
2023/03/31 11:54:33;;;;;;;17.80;11.10;;;;;;;11.25;69.14;100186.60;107143;1254;58335;-72
2023/03/31 11:57:13;;;;;;;17.60;10.70;;;;;;;11.07;70.45;100185.64;107145;1259;61915;-78
2023/03/31 11:59:47;;;;;;;21.80;12.50;;;;;;;11.07;70.30;100184.28;106955;1251;61002;-71
2023/03/31 12:02:37;;;;;;;21.30;12.70;;;;;;;11.03;71.23;100180.58;107123;1249;59244;-70
2023/03/31 12:05:11;;;;;;;22.30;13.90;;;;;;;11.02;71.29;100180.27;106962;1252;74623;-74
2023/03/31 12:08:15;;;;;;;20.10;12.80;;;;;;;11.04;71.96;100180.86;106947;1251;60727;-71
2023/03/31 12:10:53;;;;;;;19.20;11.60;;;;;;;11.09;70.51;100178.84;106982;1254;58549;-72
2023/03/31 12:13:51;;;;;;;19.30;12.10;;;;;;;11.13;71.09;100175.76;107068;1247;70720;-78
2023/03/31 12:16:32;;;;;;;18.70;12.40;;;;;;;11.09;70.98;100169.66;106954;1248;61489;-71
2023/03/31 12:19:38;;;;;;;23.80;13.10;;;;;;;10.96;72.38;100168.63;106948;1248;59864;-70
2023/03/31 12:22:29;;;;;;;19.50;13.50;;;;;;;10.73;73.95;100173.10;106970;1259;63606;-72
2023/03/31 12:24:58;;;;;;;23.80;13.50;;;;;;;10.55;74.76;100170.61;106883;1251;62267;-70
2023/03/31 12:27:48;;;;;;;20.20;13.20;;;;;;;10.60;75.46;100169.27;107035;1249;59001;-71
2023/03/31 12:30:41;;;;;;;21.30;13.10;;;;;;;10.59;75.23;100166.96;109448;1245;62399;-70
2023/03/31 12:34:12;;;;;;;19.70;12.30;;;;;;;10.67;74.64;100162.11;109529;1244;71506;-71
2023/03/31 12:37:09;;;;;;;21.80;13.60;;;;;;;10.92;73.49;100157.96;109519;1244;69604;-75
2023/03/31 12:39:43;;;;;;;20.70;12.30;;;;;;;11.07;73.62;100155.18;109407;1245;63953;-73
2023/03/31 12:43:05;;;;;;;20.70;12.50;;;;;;;11.19;73.66;100151.02;109409;1245;57691;-73
2023/03/31 12:46:17;;;;;;;23.20;14.30;;;;;;;11.29;72.81;100153.64;109632;1243;57960;-74
2023/03/31 12:49:09;;;;;;;20.00;12.80;;;;;;;11.32;72.79;100153.63;109347;1242;63026;-71
2023/03/31 12:51:50;;;;;;;19.80;12.50;;;;;;;11.34;72.03;100151.36;109505;1244;61616;-71
2023/03/31 12:55:08;;;;;;;20.30;12.30;;;;;;;11.34;72.08;100152.23;109502;1244;69739;-68
2023/03/31 12:57:37;;;;;;;23.30;13.40;;;;;;;11.35;71.76;100152.64;109556;1244;63608;-68
2023/03/31 13:00:25;;;;;;;21.10;12.90;;;;;;;11.40;73.65;100153.94;109370;1245;62079;-68
2023/03/31 13:03:33;;;;;;;19.40;12.50;;;;;;;11.51;73.43;100147.27;109486;1244;59554;-67
2023/03/31 13:06:04;;;;;;;23.80;12.10;;;;;;;11.55;73.16;100146.02;109513;1244;73404;-69
2023/03/31 13:09:10;;;;;;;18.00;12.40;;;;;;;11.65;73.47;100146.36;109544;1241;72729;-72
2023/03/31 13:11:46;;;;;;;19.50;12.20;;;;;;;11.71;72.76;100145.23;109470;1242;70027;-69
2023/03/31 13:14:44;;;;;;;19.00;11.70;;;;;;;11.68;72.44;100144.64;109408;1244;64059;-67
2023/03/31 13:17:35;;;;;;;19.10;11.50;;;;;;;11.48;73.48;100139.64;109587;1244;57090;-69
2023/03/31 13:20:35;;;;;;;20.00;11.80;;;;;;;11.40;75.61;100138.06;109577;1241;57257;-68
2023/03/31 13:23:18;;;;;;;20.20;11.80;;;;;;;11.37;76.35;100134.80;109553;1243;72528;-71
2023/03/31 13:25:58;;;;;;;19.30;11.70;;;;;;;11.40;76.02;100131.65;109533;1244;61669;-70
2023/03/31 13:28:37;;;;;;;16.90;10.80;;;;;;;11.51;75.10;100130.92;109380;1246;60058;-70
2023/03/31 13:31:12;;;;;;;20.30;11.80;;;;;;;11.44;75.38;100122.98;109625;1242;73854;-71
2023/03/31 13:33:56;;;;;;;19.80;12.20;;;;;;;11.34;75.40;100119.73;109346;1245;63410;-70
2023/03/31 13:36:28;;;;;;;18.00;11.40;;;;;;;11.35;75.09;100117.46;109274;1244;57663;-71
2023/03/31 13:39:24;;;;;;;17.10;11.60;;;;;;;11.37;75.85;100116.23;109195;1241;72750;-69
2023/03/31 13:42:12;;;;;;;14.80;10.30;;;;;;;11.27;76.19;100113.61;109436;1242;72294;-71
2023/03/31 13:45:33;;;;;;;19.60;12.30;;;;;;;11.19;78.57;100110.41;109340;1241;70138;-71
2023/03/31 13:48:43;;;;;;;17.40;11.40;;;;;;;11.24;78.86;100102.65;109234;1244;65093;-71
2023/03/31 13:51:42;;;;;;;20.90;12.40;;;;;;;11.23;78.99;100104.48;109285;1245;57140;-70
2023/03/31 13:54:38;;;;;;;20.10;12.20;;;;;;;11.29;78.44;100105.56;109357;1244;61037;-70
2023/03/31 13:57:48;;;;;;;20.60;12.30;;;;;;;11.27;79.43;100102.05;109383;1244;62113;-71
2023/03/31 14:00:43;;;;;;;19.00;12.70;;;;;;;11.30;80.01;100101.66;109141;1244;71546;-71
2023/03/31 14:03:38;;;;;;;20.20;13.10;;;;;;;11.49;78.65;100101.74;109266;1243;70948;-70
2023/03/31 14:06:33;;;;;;;15.80;10.50;;;;;;;11.61;79.26;100098.84;109313;1244;62896;-70
2023/03/31 14:09:16;;;;;;;17.40;11.80;;;;;;;11.63;79.35;100094.80;109245;1243;57749;-71
2023/03/31 14:11:45;;;;;;;23.70;13.20;;;;;;;11.81;79.22;100092.52;109302;1243;61243;-71
2023/03/31 14:14:17;;;;;;;19.30;11.80;;;;;;;12.05;78.49;100094.83;109491;1243;72733;-71
2023/03/31 14:16:56;;;;;;;18.50;12.10;;;;;;;12.18;77.54;100091.41;109415;1242;71531;-71
2023/03/31 14:19:55;;;;;;;21.50;12.80;;;;;;;12.20;77.88;100092.63;109292;1244;70578;-71
2023/03/31 14:22:46;;;;;;;19.50;11.30;;;;;;;12.19;78.55;100093.73;109383;1244;74328;-69
2023/03/31 14:25:51;;;;;;;16.00;10.40;;;;;;;12.35;77.30;100088.11;109473;1244;57548;-72
2023/03/31 14:29:00;;;;;;;15.50;10.50;;;;;;;12.13;77.68;100085.56;109266;1246;60115;-71
2023/03/31 14:31:55;;;;;;;22.60;12.40;;;;;;;11.89;78.47;100085.93;109329;1243;72647;-70
2023/03/31 14:34:52;;;;;;;17.20;10.60;;;;;;;11.89;78.73;100081.05;109384;1244;72374;-71
2023/03/31 14:37:23;;;;;;;18.00;11.10;;;;;;;11.77;79.29;100078.61;109487;1244;69139;-69
2023/03/31 14:39:55;;;;;;;16.10;10.60;;;;;;;11.67;79.90;100074.89;109320;1244;73069;-70
2023/03/31 14:42:38;;;;;;;13.30;9.90;;;;;;;11.77;80.82;100071.81;109257;1245;61719;-69
2023/03/31 14:45:30;;;;;;;15.90;10.10;;;;;;;12.02;79.45;100075.16;109136;1243;60988;-70
2023/03/31 14:48:12;;;;;;;15.00;10.60;;;;;;;12.09;79.17;100077.73;109395;1244;61952;-69
2023/03/31 14:50:45;;;;;;;15.40;10.10;;;;;;;12.28;78.45;100080.20;109302;1246;61675;-69
2023/03/31 14:53:21;;;;;;;;;;;;;;;12.17;79.41;100084.29;109282;1244;60054;-69
2023/03/31 14:56:00;;;;;;;14.00;8.80;;;;;;;12.42;78.24;100082.65;109235;1245;63311;-68
2023/03/31 14:58:40;;;;;;;11.50;8.30;;;;;;;12.82;76.67;100075.68;109267;1245;60430;-68
2023/03/31 15:01:16;;;;;;;14.10;8.50;;;;;;;13.24;75.78;100083.37;109199;1243;60298;-68
2023/03/31 15:03:45;;;;;;;14.10;9.60;;;;;;;13.87;74.86;100085.90;109322;1244;73214;-67
2023/03/31 15:06:15;;;;;;;13.70;8.10;;;;;;;14.24;72.40;100086.17;109432;1245;62094;-68
2023/03/31 15:08:44;;;;;;;10.90;7.00;;;;;;;14.81;69.37;100082.52;109525;1244;61844;-68
2023/03/31 15:11:17;;;;;;;12.00;7.90;;;;;;;14.96;67.54;100083.98;109407;1244;73451;-68
2023/03/31 15:13:49;;;;;;;11.90;7.60;;;;;;;15.20;65.83;100083.30;109467;1244;62150;-67
2023/03/31 15:16:43;;;;;;;11.00;7.30;;;;;;;15.77;63.95;100069.23;109356;1244;58834;-68
2023/03/31 15:19:20;;;;;;;10.20;7.10;;;;;;;16.39;62.42;100069.56;109405;1246;72742;-67
2023/03/31 15:22:04;;;;;;;11.50;7.80;;;;;;;17.02;60.60;100056.04;109408;1243;73071;-68
2023/03/31 15:24:33;;;;;;;11.50;7.80;;;;;;;17.29;58.63;100051.11;109315;1245;59535;-68
2023/03/31 15:27:07;;;;;;;9.00;6.50;;;;;;;18.02;56.98;100047.39;109383;1246;63291;-69
2023/03/31 15:29:46;;;;;;;10.00;7.90;;;;;;;18.16;54.67;100050.96;109439;1245;60577;-69
2023/03/31 15:32:38;;;;;;;14.10;7.10;;;;;;;17.81;54.47;100052.27;109584;1244;57231;-69
2023/03/31 15:35:22;;;;;;;10.50;6.60;;;;;;;18.36;54.10;100058.95;109549;1243;72690;-69
2023/03/31 15:37:55;;;;;;;10.10;7.00;;;;;;;17.26;55.43;100059.61;109488;1245;61256;-68
2023/03/31 15:40:35;;;;;;;9.50;6.70;;;;;;;17.73;55.32;100060.79;109387;1241;61697;-70
2023/03/31 15:43:17;;;;;;;8.30;6.40;;;;;;;18.82;51.89;100056.81;109438;1245;63717;-68
2023/03/31 15:45:52;;;;;;;10.20;8.30;;;;;;;19.09;49.77;100061.63;109433;1244;61709;-68
2023/03/31 15:48:45;;;;;;;14.80;11.30;;;;;;;18.61;50.96;100065.48;109432;1245;61676;-69
2023/03/31 15:51:13;;;;;;;13.50;11.10;;;;;;;18.46;51.93;100068.33;109491;1243;72457;-69
2023/03/31 15:53:49;;;;;;;12.50;8.10;;;;;;;18.27;52.02;100070.35;109413;1244;62152;-71
2023/03/31 15:56:33;;;;;;;7.90;5.90;;;;;;;18.26;52.51;100074.33;109401;1244;59796;-69
2023/03/31 15:59:05;;;;;;;7.50;5.90;;;;;;;18.44;50.73;100075.11;109392;1241;73813;-69
2023/03/31 16:01:41;;;;;;;10.00;6.60;;;;;;;18.64;50.26;100075.80;109182;1244;57753;-69
2023/03/31 16:04:13;;;;;;;11.20;6.90;;;;;;;18.56;50.63;100079.72;109263;1245;61181;-68
2023/03/31 16:07:01;;;;;;;10.70;6.90;;;;;;;17.95;51.28;100083.84;109532;1244;62982;-69
2023/03/31 16:10:11;;;;;;;11.50;6.80;;;;;;;16.58;54.21;100084.98;109402;1244;61595;-68
2023/03/31 16:12:56;;;;;;;10.10;7.40;;;;;;;15.19;58.49;100085.33;109394;1242;71385;-69
2023/03/31 16:15:43;;;;;;;11.80;6.70;;;;;;;14.34;60.33;100087.54;109415;1244;74149;-69
2023/03/31 16:18:22;;;;;;;9.40;7.00;;;;;;;13.75;61.89;100097.02;109511;1244;61662;-69
2023/03/31 16:20:55;;;;;;;13.90;8.00;;;;;;;13.32;64.00;100098.69;109495;1243;57780;-68
2023/03/31 16:23:29;;;;;;;13.00;6.80;;;;;;;12.82;66.12;100098.52;109533;1243;73648;-69
2023/03/31 16:26:00;;;;;;;20.00;7.90;;;;;;;12.61;65.75;100096.58;109337;1242;61903;-69
2023/03/31 16:28:35;;;;;;;15.60;7.40;;;;;;;12.32;67.32;100100.61;109423;1243;70246;-69
2023/03/31 16:31:33;;;;;;;11.60;6.70;;;;;;;12.13;68.33;100097.98;109516;1244;62433;-68
2023/03/31 16:34:05;;;;;;;24.50;8.50;;;;;;;11.85;72.52;100090.64;109525;1244;61266;-67
2023/03/31 16:36:34;;;;;;;22.30;10.30;;;;;;;11.52;78.37;100093.85;109483;1243;57129;-66
2023/03/31 16:39:05;;;;;;;18.50;9.20;;;;;;;11.40;79.76;100093.80;109469;1243;62936;-67
2023/03/31 16:41:36;;;;;;;19.50;9.60;;;;;;;11.34;79.88;100090.14;109554;1243;60959;-67
2023/03/31 16:44:05;;;;;;;18.80;9.70;;;;;;;11.22;80.28;100087.50;109377;1248;59935;-66
2023/03/31 16:46:34;;;;;;;23.70;11.90;;;;;;;11.08;80.68;100083.08;109491;1244;73217;-69
2023/03/31 16:49:03;;;;;;;32.70;17.60;;;;;;;10.95;82.41;100088.39;109566;1244;61773;-70
2023/03/31 16:51:31;;;;;;;23.60;15.30;;;;;;;10.75;85.62;100093.20;109610;1243;60933;-68
2023/03/31 16:54:00;;;;;;;19.70;12.60;;;;;;;10.57;86.00;100094.09;109507;1243;63514;-69
2023/03/31 16:56:29;;;;;;;25.00;14.20;;;;;;;10.41;86.65;100097.52;109548;1244;61716;-69
2023/03/31 16:58:58;;;;;;;24.50;14.80;;;;;;;10.25;88.24;100099.53;109543;1243;60001;-68
2023/03/31 17:01:26;;;;;;;23.30;15.70;;;;;;;10.10;88.40;100098.08;109531;1244;74538;-68
2023/03/31 17:03:55;;;;;;;24.50;15.10;;;;;;;9.98;86.13;100098.40;109549;1243;63505;-66
2023/03/31 17:06:24;;;;;;;40.90;26.70;;;;;;;9.82;87.35;100095.26;109526;1243;57280;-66
2023/03/31 17:08:53;;;;;;;21.80;15.20;;;;;;;9.67;86.56;100100.68;109595;1243;72316;-68
2023/03/31 17:11:22;;;;;;;22.90;14.60;;;;;;;9.50;85.30;100101.29;109591;1244;72633;-67
2023/03/31 17:13:53;;;;;;;23.00;15.70;;;;;;;9.22;89.05;100097.48;109391;1243;60487;-67